createdAt,value
2022-07-29T00:02:27.420Z,101350.69
2022-07-29T00:04:54.470Z,101350.78
2022-07-29T00:07:21.456Z,101354.41
2022-07-29T00:09:51.932Z,101341.00
2022-07-29T00:12:25.794Z,101340.22
2022-07-29T00:14:55.366Z,101326.91
2022-07-29T00:17:23.095Z,101333.25
2022-07-29T00:19:49.896Z,101325.34
2022-07-29T00:22:16.690Z,101327.22
2022-07-29T00:24:43.487Z,101327.28
2022-07-29T00:27:10.285Z,101313.88
2022-07-29T00:29:37.066Z,101311.22
2022-07-29T00:32:04.385Z,101310.38
2022-07-29T00:34:50.394Z,101314.13
2022-07-29T00:37:17.439Z,101326.81
2022-07-29T00:39:44.721Z,101317.97
2022-07-29T00:42:11.588Z,101312.66
2022-07-29T00:44:40.581Z,101317.16
2022-07-29T00:47:08.691Z,101325.38
2022-07-29T00:49:36.091Z,101312.94
2022-07-29T00:52:08.133Z,101316.69
2022-07-29T00:54:35.539Z,101310.56
2022-07-29T00:57:08.908Z,101305.25
2022-07-29T00:59:36.017Z,101306.19
2022-07-29T01:02:04.471Z,101302.66
2022-07-29T01:04:32.886Z,101304.41
2022-07-29T01:07:02.045Z,101293.69
2022-07-29T01:09:43.169Z,101292.84
2022-07-29T01:12:20.044Z,101290.19
2022-07-29T01:14:48.745Z,101286.59
2022-07-29T01:17:25.335Z,101284.84
2022-07-29T01:19:59.528Z,101288.47
2022-07-29T01:22:43.005Z,101288.56
2022-07-29T01:25:33.787Z,101280.63
2022-07-29T01:28:42.085Z,101286.97
2022-07-29T01:31:20.267Z,101274.50
2022-07-29T01:34:00.125Z,101283.50
2022-07-29T01:36:37.210Z,101273.66
2022-07-29T01:39:11.645Z,101272.84
2022-07-29T01:41:56.352Z,101265.09
2022-07-29T01:44:36.846Z,101260.50
2022-07-29T01:47:15.568Z,101261.47
2022-07-29T01:49:51.014Z,101267.81
2022-07-29T01:52:43.880Z,101251.81
2022-07-29T01:55:17.937Z,101251.81
2022-07-29T01:57:50.947Z,101248.31
2022-07-29T02:00:19.086Z,101256.44
2022-07-29T02:02:47.935Z,101261.06
2022-07-29T02:05:18.857Z,101255.78
2022-07-29T02:07:48.441Z,101259.44
2022-07-29T02:10:18.577Z,101252.38
2022-07-29T02:12:50.621Z,101250.59
2022-07-29T02:15:19.606Z,101242.56
2022-07-29T02:18:02.222Z,101239.09
2022-07-29T02:20:30.975Z,101244.53
2022-07-29T02:23:01.622Z,101244.59
2022-07-29T02:25:37.647Z,101243.72
2022-07-29T02:28:07.622Z,101242.00
2022-07-29T02:30:38.062Z,101237.50
2022-07-29T02:33:06.368Z,101233.00
2022-07-29T02:35:34.850Z,101229.50
2022-07-29T02:38:21.794Z,101230.38
2022-07-29T02:40:50.357Z,101234.06
2022-07-29T02:43:20.196Z,101226.06
2022-07-29T02:45:52.657Z,101225.22
2022-07-29T02:48:22.966Z,101226.22
2022-07-29T02:50:57.966Z,101226.25
2022-07-29T02:53:27.258Z,101230.84
2022-07-29T02:56:01.213Z,101233.56
2022-07-29T02:58:39.418Z,101231.88
2022-07-29T03:01:21.618Z,101228.34
2022-07-29T03:03:52.802Z,101224.88
2022-07-29T03:06:28.109Z,101224.97
2022-07-29T03:09:00.073Z,101222.34
2022-07-29T03:11:46.219Z,101222.38
2022-07-29T03:14:15.265Z,101221.56
2022-07-29T03:16:43.027Z,101224.28
2022-07-29T03:19:09.955Z,101223.50
2022-07-29T03:21:36.786Z,101220.84
2022-07-29T03:24:09.773Z,101221.84
2022-07-29T03:26:37.310Z,101217.41
2022-07-29T03:29:04.097Z,101220.09
2022-07-29T03:31:30.948Z,101218.31
2022-07-29T03:33:58.431Z,101214.81
2022-07-29T03:36:25.730Z,101211.28
2022-07-29T03:38:53.182Z,101210.47
2022-07-29T03:41:22.326Z,101206.94
2022-07-29T03:43:50.970Z,101204.34
2022-07-29T03:46:18.849Z,101207.97
2022-07-29T03:48:52.028Z,101207.16
2022-07-29T03:51:18.934Z,101209.00
2022-07-29T03:54:00.547Z,101213.47
2022-07-29T03:56:28.960Z,101213.50
2022-07-29T03:58:56.642Z,101224.34
2022-07-29T04:01:24.875Z,101218.06
2022-07-29T04:03:52.420Z,101232.41
2022-07-29T04:06:19.286Z,101227.97
2022-07-29T04:08:46.145Z,101226.25
2022-07-29T04:11:13.605Z,101226.25
2022-07-29T04:13:40.423Z,101234.31
2022-07-29T04:16:07.348Z,101227.16
2022-07-29T04:18:34.223Z,101231.63
2022-07-29T04:21:01.766Z,101231.63
2022-07-29T04:23:33.414Z,101229.84
2022-07-29T04:26:01.979Z,101233.47
2022-07-29T04:28:29.019Z,101224.50
2022-07-29T04:30:56.329Z,101225.41
2022-07-29T04:33:23.164Z,101226.25
2022-07-29T04:35:52.560Z,101222.59
2022-07-29T04:38:21.875Z,101231.53
2022-07-29T04:40:49.767Z,101234.22
2022-07-29T04:43:16.939Z,101230.63
2022-07-29T04:45:49.659Z,101235.13
2022-07-29T04:48:16.440Z,101234.25
2022-07-29T04:50:43.283Z,101227.97
2022-07-29T04:53:10.072Z,101213.72
2022-07-29T04:55:38.856Z,101220.91
2022-07-29T04:58:06.048Z,101221.88
2022-07-29T05:00:33.453Z,101223.75
2022-07-29T05:03:00.849Z,101217.50
2022-07-29T05:05:27.810Z,101216.69
2022-07-29T05:07:54.585Z,101223.91
2022-07-29T05:10:21.378Z,101218.53
2022-07-29T05:12:48.265Z,101216.84
2022-07-29T05:15:15.204Z,101217.72
2022-07-29T05:17:42.032Z,101224.88
2022-07-29T05:20:09.505Z,101230.13
2022-07-29T05:22:36.308Z,101222.00
2022-07-29T05:25:08.876Z,101221.97
2022-07-29T05:27:37.718Z,101216.50
2022-07-29T05:30:05.247Z,101224.47
2022-07-29T05:32:32.723Z,101220.88
2022-07-29T05:34:59.550Z,101222.59
2022-07-29T05:37:26.373Z,101227.03
2022-07-29T05:39:56.617Z,101235.91
2022-07-29T05:42:24.591Z,101228.72
2022-07-29T05:44:51.762Z,101223.22
2022-07-29T05:47:18.638Z,101228.44
2022-07-29T05:49:45.665Z,101233.69
2022-07-29T05:52:12.638Z,101225.47
2022-07-29T05:54:39.557Z,101225.31
2022-07-29T05:57:06.523Z,101221.59
2022-07-29T05:59:37.784Z,101220.53
2022-07-29T06:02:06.008Z,101227.56
2022-07-29T06:04:34.442Z,101226.50
2022-07-29T06:07:01.355Z,101227.94
2022-07-29T06:09:29.265Z,101230.84
2022-07-29T06:11:56.231Z,101217.34
2022-07-29T06:14:23.019Z,101223.72
2022-07-29T06:16:49.852Z,101213.81
2022-07-29T06:19:16.790Z,101212.81
2022-07-29T06:21:44.716Z,101209.13
2022-07-29T06:26:43.746Z,101213.59
2022-07-29T06:29:14.072Z,101203.78
2022-07-29T06:31:40.875Z,101203.97
2022-07-29T06:34:08.154Z,101196.25
2022-07-29T06:36:39.800Z,101203.66
2022-07-29T06:39:09.041Z,101209.31
2022-07-29T06:41:36.466Z,101210.28
2022-07-29T06:44:03.466Z,101205.84
2022-07-29T06:46:30.341Z,101200.38
2022-07-29T06:48:57.205Z,101201.09
2022-07-29T06:51:24.289Z,101188.06
2022-07-29T06:53:59.869Z,101194.81
2022-07-29T06:56:32.259Z,101202.53
2022-07-29T06:59:06.116Z,101199.56
2022-07-29T07:01:32.991Z,101199.16
2022-07-29T07:03:59.876Z,101191.53
2022-07-29T07:06:26.822Z,101189.78
2022-07-29T07:08:53.659Z,101190.50
2022-07-29T07:11:20.457Z,101187.50
2022-07-29T07:13:47.303Z,101190.88
2022-07-29T07:16:14.143Z,101184.69
2022-07-29T07:18:41.414Z,101194.09
2022-07-29T07:21:08.241Z,101195.94
2022-07-29T07:23:35.037Z,101191.63
2022-07-29T07:26:01.838Z,101200.81
2022-07-29T07:28:28.626Z,101202.75
2022-07-29T07:30:55.438Z,101208.16
2022-07-29T07:33:22.230Z,101210.19
2022-07-29T07:35:49.033Z,101208.63
2022-07-29T07:38:15.816Z,101216.28
2022-07-29T07:40:43.128Z,101208.72
2022-07-29T07:43:09.915Z,101208.97
2022-07-29T07:45:38.252Z,101204.81
2022-07-29T07:48:05.810Z,101192.38
2022-07-29T07:50:32.830Z,101200.69
2022-07-29T07:52:59.779Z,101190.09
2022-07-29T07:55:27.256Z,101183.88
2022-07-29T07:57:57.504Z,101194.81
2022-07-29T08:00:24.373Z,101184.97
2022-07-29T08:02:51.710Z,101180.38
2022-07-29T08:05:19.255Z,101188.28
2022-07-29T08:07:49.199Z,101191.03
2022-07-29T08:10:37.103Z,101191.03
2022-07-29T08:13:08.814Z,101186.47
2022-07-29T08:15:36.233Z,101191.72
2022-07-29T08:18:08.194Z,101195.16
2022-07-29T08:20:37.024Z,101186.84
2022-07-29T08:23:05.561Z,101191.97
2022-07-29T08:25:33.224Z,101194.47
2022-07-29T08:28:04.641Z,101196.97
2022-07-29T08:30:31.623Z,101200.41
2022-07-29T08:32:58.506Z,101199.38
2022-07-29T08:35:26.081Z,101200.19
2022-07-29T08:37:53.793Z,101196.53
2022-07-29T08:40:31.965Z,101199.94
2022-07-29T08:43:04.686Z,101207.09
2022-07-29T08:45:52.062Z,101203.50
2022-07-29T08:48:22.317Z,101200.78
2022-07-29T08:50:53.861Z,101197.88
2022-07-29T08:53:22.071Z,101196.94
2022-07-29T08:55:50.636Z,101200.47
2022-07-29T08:58:18.481Z,101199.38
2022-07-29T09:00:55.510Z,101193.81
2022-07-29T09:03:26.253Z,101195.34
2022-07-29T09:05:53.446Z,101196.97
2022-07-29T09:08:20.986Z,101203.91
2022-07-29T09:10:48.155Z,101202.00
2022-07-29T09:13:14.938Z,101205.53
2022-07-29T09:15:41.741Z,101195.38
2022-07-29T09:18:08.546Z,101192.50
2022-07-29T09:21:13.688Z,101198.56
2022-07-29T09:23:42.558Z,101186.66
2022-07-29T09:26:09.361Z,101186.47
2022-07-29T09:28:43.000Z,101190.00
2022-07-29T09:31:09.839Z,101191.59
2022-07-29T09:33:37.374Z,101192.31
2022-07-29T09:36:09.929Z,101194.78
2022-07-29T09:38:38.185Z,101190.91
2022-07-29T09:41:06.891Z,101180.63
2022-07-29T09:43:34.627Z,101187.28
2022-07-29T09:46:12.852Z,101181.31
2022-07-29T09:48:39.968Z,101180.81
2022-07-29T09:51:24.131Z,101178.59
2022-07-29T09:53:53.681Z,101170.22
2022-07-29T09:56:20.524Z,101160.88
2022-07-29T09:58:47.324Z,101166.75
2022-07-29T10:01:14.337Z,101159.28
2022-07-29T10:03:54.023Z,101150.66
2022-07-29T10:06:20.825Z,101146.81
2022-07-29T10:08:48.009Z,101144.75
2022-07-29T10:11:19.812Z,101144.50
2022-07-29T10:13:49.083Z,101146.97
2022-07-29T10:16:17.505Z,101144.25
2022-07-29T10:18:45.332Z,101149.50
2022-07-29T10:21:35.188Z,101140.03
2022-07-29T10:24:01.324Z,101139.53
2022-07-29T10:26:30.497Z,101137.34
2022-07-29T10:28:57.290Z,101134.25
2022-07-29T10:31:38.123Z,101134.00
2022-07-29T10:34:46.136Z,101125.59
2022-07-29T10:38:16.160Z,101130.97
2022-07-29T10:41:24.249Z,101131.72
2022-07-29T10:43:55.662Z,101127.09
2022-07-29T10:46:23.000Z,101126.16
2022-07-29T10:49:19.282Z,101119.66
2022-07-29T10:52:01.409Z,101123.00
2022-07-29T10:54:38.237Z,101130.00
2022-07-29T10:57:53.357Z,101131.38
2022-07-29T11:00:28.998Z,101126.41
2022-07-29T11:02:57.538Z,101131.34
2022-07-29T11:05:32.040Z,101137.19
2022-07-29T11:08:26.243Z,101131.22
2022-07-29T11:11:22.124Z,101126.19
2022-07-29T11:13:53.122Z,101133.19
2022-07-29T11:16:25.027Z,101116.56
2022-07-29T11:19:14.684Z,101117.84
2022-07-29T11:21:54.260Z,101118.44
2022-07-29T11:24:30.134Z,101108.25
2022-07-29T11:27:40.238Z,101110.50
2022-07-29T11:30:08.848Z,101116.47
2022-07-29T11:32:48.531Z,101112.31
2022-07-29T11:35:36.972Z,101103.69
2022-07-29T11:38:23.167Z,101113.19
2022-07-29T11:41:28.626Z,101113.59
2022-07-29T11:43:59.624Z,101100.00
2022-07-29T11:46:49.814Z,101106.72
2022-07-29T11:49:32.127Z,101099.13
2022-07-29T11:52:02.326Z,101105.44
2022-07-29T11:54:38.733Z,101098.84
2022-07-29T11:57:22.281Z,101105.25
2022-07-29T11:59:49.655Z,101093.41
2022-07-29T12:02:36.698Z,101099.81
2022-07-29T12:05:10.627Z,101101.56
2022-07-29T12:07:41.285Z,101094.16
2022-07-29T12:10:19.606Z,101093.28
2022-07-29T12:12:52.549Z,101092.53
2022-07-29T12:15:21.540Z,101083.19
2022-07-29T12:17:49.596Z,101092.72
2022-07-29T12:20:26.037Z,101081.34
2022-07-29T12:22:55.389Z,101082.94
2022-07-29T12:25:33.084Z,101092.50
2022-07-29T12:28:10.276Z,101087.44
2022-07-29T12:30:49.301Z,101085.59
2022-07-29T12:33:30.742Z,101091.63
2022-07-29T12:36:12.836Z,101093.16
2022-07-29T12:38:45.473Z,101085.56
2022-07-29T12:41:12.341Z,101084.38
2022-07-29T12:43:54.540Z,101078.38
2022-07-29T12:46:21.417Z,101074.38
2022-07-29T12:48:56.128Z,101074.72
2022-07-29T12:51:41.001Z,101061.59
2022-07-29T12:54:17.254Z,101072.91
2022-07-29T12:56:45.949Z,101069.13
2022-07-29T12:59:22.515Z,101072.28
2022-07-29T13:01:52.392Z,101071.88
2022-07-29T13:04:56.394Z,101062.41
2022-07-29T13:07:54.535Z,101062.09
2022-07-29T13:10:24.126Z,101066.44
2022-07-29T13:13:12.137Z,101058.88
2022-07-29T13:15:43.268Z,101069.53
2022-07-29T13:18:33.615Z,101056.56
2022-07-29T13:21:20.675Z,101069.13
2022-07-29T13:23:47.496Z,101057.69
2022-07-29T13:26:14.288Z,101056.72
2022-07-29T13:28:41.082Z,101061.09
2022-07-29T13:31:11.358Z,101051.25
2022-07-29T13:33:38.231Z,101059.78
2022-07-29T13:36:05.041Z,101053.88
2022-07-29T13:38:31.844Z,101045.34
2022-07-29T13:40:59.363Z,101041.75
2022-07-29T13:43:26.258Z,101038.16
2022-07-29T13:45:53.144Z,101039.03
2022-07-29T13:48:19.997Z,101041.88
2022-07-29T13:50:47.554Z,101040.13
2022-07-29T13:53:17.810Z,101035.75
2022-07-29T13:55:45.630Z,101025.09
2022-07-29T13:58:12.510Z,101028.59
2022-07-29T14:00:39.364Z,101017.88
2022-07-29T14:03:07.246Z,101025.09
2022-07-29T14:05:34.039Z,101020.50
2022-07-29T14:08:00.856Z,101021.38
2022-07-29T14:10:27.695Z,101013.94
2022-07-29T14:12:54.488Z,101009.25
2022-07-29T14:15:21.365Z,100998.13
2022-07-29T14:17:48.124Z,101010.03
2022-07-29T14:20:16.447Z,101012.53
2022-07-29T14:22:45.115Z,101009.47
2022-07-29T14:25:15.293Z,101008.25
2022-07-29T14:27:44.236Z,101009.50
2022-07-29T14:30:12.000Z,101002.00
2022-07-29T14:32:38.807Z,101007.84
2022-07-29T14:35:06.894Z,101008.38
2022-07-29T14:37:39.952Z,101006.84
2022-07-29T14:40:08.679Z,101001.56
2022-07-29T14:42:35.677Z,100997.16
2022-07-29T14:45:02.508Z,101002.03
2022-07-29T14:47:29.289Z,101000.09
2022-07-29T14:49:56.083Z,100994.34
2022-07-29T14:52:22.852Z,100996.66
2022-07-29T14:54:49.973Z,100998.28
2022-07-29T14:57:17.308Z,100995.31
2022-07-29T14:59:44.104Z,100993.34
2022-07-29T15:02:10.940Z,100993.50
2022-07-29T15:04:37.746Z,100987.16
2022-07-29T15:07:05.023Z,100984.66
2022-07-29T15:09:31.849Z,100990.75
2022-07-29T15:12:03.902Z,101000.81
2022-07-29T15:14:30.698Z,100990.91
2022-07-29T15:16:57.517Z,100984.56
2022-07-29T15:19:24.508Z,100983.94
2022-07-29T15:21:51.395Z,100983.44
2022-07-29T15:24:18.274Z,100995.13
2022-07-29T15:26:45.496Z,100985.16
2022-07-29T15:29:12.429Z,100995.63
2022-07-29T15:31:39.341Z,100996.88
2022-07-29T15:34:06.692Z,100999.78
2022-07-29T15:39:21.461Z,100977.91
2022-07-29T15:41:48.597Z,100986.88
2022-07-29T15:44:15.405Z,100978.91
2022-07-29T15:47:01.258Z,100980.78
2022-07-29T15:49:47.525Z,100975.91
2022-07-29T15:52:18.991Z,100969.84
2022-07-29T15:54:51.644Z,100971.19
2022-07-29T15:57:18.424Z,100964.22
2022-07-29T15:59:45.241Z,100966.44
2022-07-29T16:02:12.203Z,100970.31
2022-07-29T16:04:39.046Z,100965.19
2022-07-29T16:07:05.928Z,100964.31
2022-07-29T16:09:32.710Z,100961.69
2022-07-29T16:11:59.559Z,100961.69
2022-07-29T16:14:28.228Z,100958.25
2022-07-29T16:16:56.000Z,100961.97
2022-07-29T16:19:23.305Z,100963.72
2022-07-29T16:21:50.093Z,100954.75
2022-07-29T16:24:17.091Z,100958.59
2022-07-29T16:26:43.882Z,100960.47
2022-07-29T16:29:10.744Z,100952.38
2022-07-29T16:31:37.587Z,100957.22
2022-07-29T16:34:04.437Z,100949.28
2022-07-29T16:36:31.518Z,100945.88
2022-07-29T16:38:58.339Z,100954.19
2022-07-29T16:41:25.140Z,100955.16
2022-07-29T16:43:51.929Z,100945.22
2022-07-29T16:46:19.495Z,100948.22
2022-07-29T16:48:47.872Z,100947.34
2022-07-29T16:51:15.525Z,100941.34
2022-07-29T16:53:42.470Z,100942.47
2022-07-29T16:56:13.085Z,100944.44
2022-07-29T16:58:43.783Z,100953.63
2022-07-29T17:01:11.561Z,100942.94
2022-07-29T17:04:00.949Z,100949.53
2022-07-29T17:06:29.438Z,100953.59
2022-07-29T17:08:56.624Z,100950.34
2022-07-29T17:11:53.723Z,100955.06
2022-07-29T17:14:10.526Z,100944.50
2022-07-29T17:16:37.434Z,100945.59
2022-07-29T17:19:04.308Z,100944.84
2022-07-29T17:21:31.198Z,100951.38
2022-07-29T17:23:59.197Z,100942.31
2022-07-29T17:26:28.072Z,100948.03
2022-07-29T17:28:55.570Z,100948.97
2022-07-29T17:31:23.199Z,100941.03
2022-07-29T17:33:50.149Z,100938.56
2022-07-29T17:36:26.734Z,100931.44
2022-07-29T17:39:04.246Z,100932.56
2022-07-29T17:41:31.065Z,100931.06
2022-07-29T17:43:57.922Z,100927.56
2022-07-29T17:46:27.301Z,100926.81
2022-07-29T17:48:55.805Z,100928.78
2022-07-29T17:51:26.621Z,100925.28
2022-07-29T17:53:53.572Z,100924.78
2022-07-29T17:56:20.418Z,100923.25
2022-07-29T17:58:47.715Z,100926.22
2022-07-29T18:01:15.729Z,100926.44
2022-07-29T18:03:43.416Z,100935.84
2022-07-29T18:06:12.851Z,100941.50
2022-07-29T18:08:40.610Z,100941.75
2022-07-29T18:11:07.447Z,100934.78
2022-07-29T18:13:34.282Z,100936.75
2022-07-29T18:16:01.219Z,100939.66
2022-07-29T18:18:28.200Z,100934.31
2022-07-29T18:20:55.069Z,100926.28
2022-07-29T18:23:21.906Z,100933.69
2022-07-29T18:25:48.709Z,100933.91
2022-07-29T18:28:15.520Z,100934.16
2022-07-29T18:30:42.442Z,100942.53
2022-07-29T18:33:21.722Z,100943.75
2022-07-29T18:35:51.788Z,100941.25
2022-07-29T18:38:19.176Z,100947.91
2022-07-29T18:40:46.251Z,100947.03
2022-07-29T18:43:13.550Z,100956.28
2022-07-29T18:45:40.696Z,100953.78
2022-07-29T18:48:13.281Z,100959.47
2022-07-29T18:50:41.585Z,100954.22
2022-07-29T18:53:09.024Z,100952.59
2022-07-29T18:55:35.822Z,100948.34
2022-07-29T18:58:03.118Z,100950.31
2022-07-29T19:00:30.479Z,100950.53
2022-07-29T19:02:57.416Z,100953.50
2022-07-29T19:05:25.757Z,100951.75
2022-07-29T19:07:54.672Z,100958.25
2022-07-29T19:10:22.168Z,100961.19
2022-07-29T19:12:48.960Z,100963.16
2022-07-29T19:15:20.395Z,100958.78
2022-07-29T19:17:48.497Z,100959.00
2022-07-29T19:20:16.391Z,100956.38
2022-07-29T19:22:43.222Z,100960.31
2022-07-29T19:25:10.149Z,100955.09
2022-07-29T19:27:37.142Z,100955.31
2022-07-29T19:30:06.895Z,100960.94
2022-07-29T19:32:33.788Z,100959.41
2022-07-29T19:35:19.155Z,100965.19
2022-07-29T19:37:45.939Z,100964.53
2022-07-29T19:40:13.095Z,100964.84
2022-07-29T19:42:39.888Z,100972.34
2022-07-29T19:45:07.288Z,100966.25
2022-07-29T19:47:34.204Z,100972.88
2022-07-29T19:50:01.176Z,100972.22
2022-07-29T19:52:28.295Z,100972.41
2022-07-29T19:54:55.157Z,100973.69
2022-07-29T19:57:22.032Z,100967.56
2022-07-29T19:59:50.980Z,100967.00
2022-07-29T20:02:17.843Z,100977.25
2022-07-29T20:04:44.763Z,100968.41
2022-07-29T20:07:12.973Z,100969.47
2022-07-29T20:09:40.857Z,100968.81
2022-07-29T20:12:11.547Z,100970.78
2022-07-29T20:14:38.812Z,100963.78
2022-07-29T20:17:05.720Z,100968.47
2022-07-29T20:19:33.171Z,100978.56
2022-07-29T20:22:00.148Z,100980.53
2022-07-29T20:24:27.205Z,100982.47
2022-07-29T20:26:54.011Z,100995.31
2022-07-29T20:29:20.987Z,100995.41
2022-07-29T20:31:52.927Z,100999.97
2022-07-29T20:34:23.114Z,100996.56
2022-07-29T20:36:49.952Z,101008.50
2022-07-29T20:39:16.762Z,101014.16
2022-07-29T20:41:44.244Z,101019.78
2022-07-29T20:44:11.053Z,101018.22
2022-07-29T20:46:39.154Z,101020.16
2022-07-29T20:49:06.079Z,101029.50
2022-07-29T20:51:32.880Z,101023.38
2022-07-29T20:54:10.827Z,101020.97
2022-07-29T20:56:38.110Z,101021.16
2022-07-29T20:59:04.954Z,101019.78
2022-07-29T21:01:31.812Z,101025.53
2022-07-29T21:03:58.662Z,101016.69
2022-07-29T21:06:25.658Z,101013.19
2022-07-29T21:08:52.467Z,101014.19
2022-07-29T21:11:42.854Z,101011.63
2022-07-29T21:14:06.289Z,101019.25
2022-07-29T21:16:33.762Z,101026.59
2022-07-29T21:19:02.105Z,101024.16
2022-07-29T21:21:29.075Z,101033.50
2022-07-29T21:23:55.903Z,101024.72
2022-07-29T21:26:22.677Z,101025.78
2022-07-29T21:28:50.530Z,101033.34
2022-07-29T21:31:17.700Z,101034.50
2022-07-29T21:33:46.722Z,101035.66
2022-07-29T21:36:47.304Z,101027.09
2022-07-29T21:39:06.762Z,101034.84
2022-07-29T21:41:34.517Z,101041.41
2022-07-29T21:44:01.602Z,101039.88
2022-07-29T21:46:28.613Z,101040.13
2022-07-29T21:48:55.663Z,101045.66
2022-07-29T21:51:22.544Z,101050.31
2022-07-29T21:53:50.443Z,101055.06
2022-07-29T21:56:19.937Z,101048.91
2022-07-29T21:58:49.345Z,101049.16
2022-07-29T22:01:16.212Z,101049.44
2022-07-29T22:03:43.045Z,101061.44
2022-07-29T22:06:11.429Z,101058.91
2022-07-29T22:08:45.578Z,101058.22
2022-07-29T22:11:12.916Z,101062.06
2022-07-29T22:13:39.742Z,101060.59
2022-07-29T22:16:06.988Z,101059.78
2022-07-29T22:18:33.786Z,101068.19
2022-07-29T22:21:00.562Z,101068.31
2022-07-29T22:23:27.362Z,101064.91
2022-07-29T22:25:54.165Z,101070.47
2022-07-29T22:28:21.141Z,101068.03
2022-07-29T22:30:48.014Z,101069.09
2022-07-29T22:33:16.877Z,101075.53
2022-07-29T22:35:45.712Z,101061.22
2022-07-29T22:38:19.054Z,101060.41
2022-07-29T22:40:46.882Z,101056.13
2022-07-29T22:43:15.710Z,101059.03
2022-07-29T22:45:42.575Z,101058.19
2022-07-29T22:48:10.459Z,101052.94
2022-07-29T22:50:38.274Z,101061.09
2022-07-29T22:53:05.077Z,101057.69
2022-07-29T22:55:31.863Z,101047.88
2022-07-29T22:57:58.645Z,101048.03
2022-07-29T23:00:25.460Z,101048.22
2022-07-29T23:02:52.265Z,101053.78
2022-07-29T23:05:19.141Z,101050.31
2022-07-29T23:07:45.963Z,101063.06
2022-07-29T23:10:12.742Z,101063.25
2022-07-29T23:12:39.522Z,101052.59
2022-07-29T23:15:06.956Z,101046.34
2022-07-29T23:17:36.084Z,101050.91
2022-07-29T23:20:06.690Z,101054.66
2022-07-29T23:22:33.966Z,101054.75
2022-07-29T23:25:00.753Z,101053.88
2022-07-29T23:27:27.583Z,101056.75
2022-07-29T23:29:54.363Z,101058.66
2022-07-29T23:32:21.175Z,101046.25
2022-07-29T23:34:47.944Z,101043.78
2022-07-29T23:37:14.745Z,101049.19
2022-07-29T23:39:41.529Z,101051.13
2022-07-29T23:42:08.341Z,101039.41
2022-07-29T23:44:35.114Z,101049.38
2022-07-29T23:47:02.522Z,101048.56
2022-07-29T23:49:29.573Z,101044.28
2022-07-29T23:51:56.364Z,101029.09
2022-07-29T23:54:23.163Z,101037.34
2022-07-29T23:56:49.953Z,101032.00
2022-07-29T23:59:16.730Z,101033.03
